Watertown, Wisconsin
Current Conditions -  °F | °C
As of 7:55 AM on Monday 20 Oct 2014 (Local Time) from KRYV Reporting Station
Scattered Clouds Scattered Clouds  
Wind Chill:   Ceiling: Unl
Heat Index:   Visibility: 10mi
Dew Point:   Wind: 6mph
Humidity: 98%   Direction: 320°NW
Pressure: 29.83"   Gusts: NA
Location:  43.2°N, 88.72°W
Report Text: KRYV 201255Z AUTO 32005KT 10SM SCT050 SCT065 07/07 A2983 RMK AO2 T00730070
Loading
Personal Weather Stations






























Interactive Weather Map
Tropical Storm Tracking
New forecast layout! Learn more

10-Day Weather Forecast

Advertisements
Track Severe Weather on mobile